createdAt,value
2022-11-16T00:03:12.706Z,107.20
2022-11-16T00:06:39.943Z,102.20
2022-11-16T00:10:08.699Z,104.10
2022-11-16T00:13:36.843Z,92.60
2022-11-16T00:17:04.694Z,99.00
2022-11-16T00:20:31.496Z,97.60
2022-11-16T00:23:58.714Z,91.60
2022-11-16T00:27:25.812Z,94.90
2022-11-16T00:31:01.201Z,98.20
2022-11-16T00:34:27.972Z,90.10
2022-11-16T00:37:55.431Z,104.80
2022-11-16T00:41:22.717Z,93.40
2022-11-16T00:44:49.439Z,96.50
2022-11-16T00:48:16.392Z,95.60
2022-11-16T00:51:43.164Z,94.90
2022-11-16T00:55:11.374Z,99.10
2022-11-16T00:58:38.578Z,107.70
2022-11-16T01:02:07.974Z,110.80
2022-11-16T01:05:35.638Z,107.10
2022-11-16T01:09:02.804Z,104.20
2022-11-16T01:12:29.624Z,111.10
2022-11-16T01:15:56.852Z,108.70
2022-11-16T01:19:23.875Z,109.80
2022-11-16T01:22:50.722Z,108.40
2022-11-16T01:26:17.622Z,115.60
2022-11-16T01:29:45.379Z,112.30
2022-11-16T01:33:12.580Z,109.00
2022-11-16T01:36:39.448Z,116.00
2022-11-16T01:40:08.622Z,114.80
2022-11-16T01:43:55.163Z,128.10
2022-11-16T01:47:23.855Z,114.10
2022-11-16T01:50:53.148Z,115.60
2022-11-16T01:54:20.339Z,116.10
2022-11-16T01:57:57.976Z,113.50
2022-11-16T02:01:25.732Z,111.00
2022-11-16T02:04:55.918Z,115.50
2022-11-16T02:09:06.002Z,126.20
2022-11-16T02:13:01.146Z,125.70
2022-11-16T02:16:58.904Z,116.60
2022-11-16T02:21:08.985Z,111.50
2022-11-16T02:24:49.603Z,127.70
2022-11-16T02:28:31.521Z,129.10
2022-11-16T02:32:04.102Z,125.60
2022-11-16T02:35:35.037Z,118.30
2022-11-16T02:39:08.084Z,113.60
2022-11-16T02:42:40.606Z,107.40
2022-11-16T02:46:11.072Z,101.20
2022-11-16T02:49:43.478Z,115.70
2022-11-16T02:53:10.687Z,100.60
2022-11-16T02:56:51.538Z,108.00
2022-11-16T03:00:26.050Z,101.30
2022-11-16T03:03:59.378Z,108.30
2022-11-16T03:07:33.776Z,94.80
2022-11-16T03:11:23.260Z,115.40
2022-11-16T03:18:20.861Z,89.20
2022-11-16T03:21:52.670Z,86.70
2022-11-16T03:25:22.263Z,93.60
2022-11-16T03:28:58.999Z,94.80
2022-11-16T03:32:31.677Z,90.30
2022-11-16T03:36:04.568Z,96.60
2022-11-16T03:39:35.917Z,109.50
2022-11-16T03:43:05.414Z,104.50
2022-11-16T03:46:33.596Z,86.70
2022-11-16T03:50:00.426Z,77.10
2022-11-16T03:53:29.639Z,84.80
2022-11-16T03:56:56.747Z,78.20
2022-11-16T04:00:24.520Z,74.40
2022-11-16T04:03:53.598Z,62.60
2022-11-16T04:07:38.390Z,70.00
2022-11-16T04:11:23.574Z,78.80
2022-11-16T04:15:08.475Z,66.60
2022-11-16T04:18:53.887Z,71.90
2022-11-16T04:22:44.205Z,71.00
2022-11-16T04:26:13.782Z,73.00
2022-11-16T04:29:41.544Z,62.90
2022-11-16T04:33:25.901Z,66.40
2022-11-16T04:37:10.378Z,51.60
2022-11-16T04:40:38.443Z,60.20
2022-11-16T04:44:05.519Z,52.20
2022-11-16T04:47:34.547Z,59.40
2022-11-16T04:51:02.394Z,59.80
2022-11-16T04:54:29.345Z,59.10
2022-11-16T04:57:56.276Z,56.00
2022-11-16T05:01:43.822Z,56.20
2022-11-16T05:08:58.947Z,52.20
2022-11-16T05:12:28.475Z,44.20
2022-11-16T05:15:57.888Z,58.30
2022-11-16T05:19:43.508Z,50.20
2022-11-16T05:23:31.230Z,46.70
2022-11-16T05:27:01.508Z,62.30
2022-11-16T05:30:29.725Z,55.60
2022-11-16T05:33:57.764Z,59.50
2022-11-16T05:37:26.918Z,60.00
2022-11-16T05:40:54.317Z,64.10
2022-11-16T05:44:21.791Z,65.30
2022-11-16T05:47:49.256Z,60.20
2022-11-16T05:51:16.311Z,68.30
2022-11-16T05:54:43.213Z,70.50
2022-11-16T05:58:10.728Z,68.20
2022-11-16T06:01:38.687Z,69.70
2022-11-16T06:05:06.271Z,57.20
2022-11-16T06:08:34.099Z,65.40
2022-11-16T06:12:03.344Z,61.20
2022-11-16T06:15:30.865Z,69.00
2022-11-16T06:20:59.522Z,59.10
2022-11-16T06:24:26.454Z,60.00
2022-11-16T06:27:53.413Z,49.10
2022-11-16T06:31:20.333Z,58.20
2022-11-16T06:34:47.266Z,55.40
2022-11-16T06:38:18.706Z,46.10
2022-11-16T06:41:46.960Z,47.90
2022-11-16T06:45:14.392Z,53.20
2022-11-16T06:48:44.655Z,51.90
2022-11-16T06:52:13.142Z,49.30
2022-11-16T06:55:40.234Z,47.40
2022-11-16T06:59:07.085Z,49.80
2022-11-16T07:02:34.685Z,42.70
2022-11-16T07:06:05.939Z,44.10
2022-11-16T07:09:32.736Z,47.40
2022-11-16T07:13:02.429Z,48.60
2022-11-16T07:16:30.054Z,38.60
2022-11-16T07:19:58.643Z,42.40
2022-11-16T07:23:26.049Z,46.10
2022-11-16T07:26:53.083Z,41.60
2022-11-16T07:30:22.324Z,42.90
2022-11-16T07:34:05.249Z,43.40
2022-11-16T07:37:40.843Z,44.10
2022-11-16T07:41:10.628Z,43.60
2022-11-16T07:44:42.546Z,42.70
2022-11-16T07:48:10.038Z,40.70
2022-11-16T07:52:00.222Z,46.40
2022-11-16T07:55:55.906Z,46.20
2022-11-16T07:59:22.933Z,44.50
2022-11-16T08:02:50.104Z,38.90
2022-11-16T08:06:24.354Z,44.70
2022-11-16T08:09:52.183Z,47.80
2022-11-16T08:13:20.333Z,47.20
2022-11-16T08:16:47.581Z,44.40
2022-11-16T08:20:15.442Z,39.30
2022-11-16T08:23:42.551Z,36.10
2022-11-16T08:27:09.367Z,40.00
2022-11-16T08:30:36.540Z,40.40
2022-11-16T08:34:03.660Z,80.90
2022-11-16T08:37:32.126Z,56.10
2022-11-16T08:40:59.499Z,45.60
2022-11-16T08:44:26.553Z,38.50
2022-11-16T08:48:03.501Z,41.60
2022-11-16T08:51:31.770Z,38.50
2022-11-16T08:55:03.322Z,40.30
2022-11-16T08:58:30.429Z,40.00
2022-11-16T09:01:57.440Z,39.50
2022-11-16T09:05:24.692Z,39.10
2022-11-16T09:08:51.628Z,42.60
2022-11-16T09:12:18.310Z,35.00
2022-11-16T09:15:45.552Z,32.50
2022-11-16T09:19:12.445Z,35.10
2022-11-16T09:22:39.676Z,29.20
2022-11-16T09:26:07.653Z,29.40
2022-11-16T09:29:34.330Z,21.90
2022-11-16T09:33:02.149Z,25.00
2022-11-16T09:36:29.929Z,24.70
2022-11-16T09:39:57.999Z,27.20
2022-11-16T09:43:42.598Z,20.80
2022-11-16T09:47:19.608Z,20.30
2022-11-16T09:50:50.293Z,24.10
2022-11-16T09:54:21.229Z,27.80
2022-11-16T09:57:48.994Z,54.60
2022-11-16T10:01:27.396Z,55.30
2022-11-16T10:04:58.792Z,29.50
2022-11-16T10:08:37.003Z,39.40
2022-11-16T10:12:22.307Z,22.40
2022-11-16T10:16:00.988Z,36.00
2022-11-16T10:19:37.692Z,37.80
2022-11-16T10:23:16.795Z,35.70
2022-11-16T10:26:51.684Z,50.80
2022-11-16T10:30:22.374Z,43.50
2022-11-16T10:33:54.226Z,52.50
2022-11-16T10:37:21.968Z,35.60
2022-11-16T10:40:52.916Z,36.20
2022-11-16T10:44:26.822Z,34.50
2022-11-16T10:47:58.343Z,34.40
2022-11-16T10:51:25.545Z,27.90
2022-11-16T10:54:52.740Z,36.80
2022-11-16T10:58:19.457Z,38.60
2022-11-16T11:01:50.947Z,36.20
2022-11-16T11:05:21.239Z,31.10
2022-11-16T11:08:48.147Z,34.40
2022-11-16T11:12:36.903Z,44.60
2022-11-16T11:16:20.584Z,35.60
2022-11-16T11:19:47.529Z,33.40
2022-11-16T11:23:21.268Z,43.80
2022-11-16T11:26:53.821Z,38.90
2022-11-16T11:30:23.230Z,29.60
2022-11-16T11:33:54.702Z,32.20
2022-11-16T11:37:26.450Z,33.00
2022-11-16T11:41:00.579Z,32.20
2022-11-16T11:44:37.541Z,24.40
2022-11-16T11:48:10.119Z,26.70
2022-11-16T11:51:41.149Z,21.20
2022-11-16T11:55:15.818Z,17.80
2022-11-16T11:58:44.204Z,18.10
2022-11-16T12:02:29.843Z,13.90
2022-11-16T12:06:08.479Z,21.00
2022-11-16T12:09:43.954Z,17.20
2022-11-16T12:13:30.660Z,23.30
2022-11-16T12:17:08.025Z,19.20
2022-11-16T12:20:45.952Z,21.90
2022-11-16T12:24:26.122Z,16.70
2022-11-16T12:28:10.413Z,24.00
2022-11-16T12:32:26.046Z,18.40
2022-11-16T12:36:01.830Z,14.00
2022-11-16T12:39:35.603Z,18.10
2022-11-16T12:43:12.426Z,13.20
2022-11-16T12:46:48.015Z,11.90
2022-11-16T12:50:30.867Z,31.50
2022-11-16T12:54:27.451Z,23.20
2022-11-16T12:58:08.057Z,19.20
2022-11-16T13:01:42.274Z,10.20
2022-11-16T13:05:19.091Z,12.30
2022-11-16T13:08:53.672Z,14.30
2022-11-16T13:12:24.527Z,11.00
2022-11-16T13:15:52.061Z,17.20
2022-11-16T13:19:19.619Z,15.20
2022-11-16T13:22:54.033Z,16.70
2022-11-16T13:26:30.237Z,12.30
2022-11-16T13:30:05.200Z,14.40
2022-11-16T13:33:46.245Z,17.60
2022-11-16T13:37:45.178Z,15.30
2022-11-16T13:41:29.949Z,16.40
2022-11-16T13:45:06.522Z,14.10
2022-11-16T13:48:36.161Z,12.60
2022-11-16T13:52:22.644Z,14.60
2022-11-16T14:05:43.628Z,14.60
2022-11-16T14:09:43.935Z,14.10
2022-11-16T14:13:39.811Z,12.60
2022-11-16T14:17:08.307Z,18.30
2022-11-16T14:20:50.057Z,15.50
2022-11-16T14:24:29.641Z,13.00
2022-11-16T14:31:30.269Z,12.70
2022-11-16T14:34:59.499Z,13.50
2022-11-16T14:38:33.311Z,20.50
2022-11-16T14:42:03.941Z,16.40
2022-11-16T14:45:33.349Z,22.40
2022-11-16T14:49:03.064Z,15.10
2022-11-16T14:52:36.524Z,24.50
2022-11-16T14:56:12.062Z,21.50
2022-11-16T14:59:38.936Z,29.40
2022-11-16T15:03:07.104Z,73.10
2022-11-16T15:06:40.183Z,68.00
2022-11-16T15:10:15.703Z,47.80
2022-11-16T15:13:46.463Z,30.60
2022-11-16T15:17:19.435Z,34.10
2022-11-16T15:20:52.467Z,44.00
2022-11-16T15:24:31.772Z,42.70
2022-11-16T15:31:26.415Z,30.10
2022-11-16T15:34:55.676Z,27.40
2022-11-16T15:38:24.781Z,22.50
2022-11-16T15:41:52.561Z,39.70
2022-11-16T15:45:25.770Z,32.80
2022-11-16T15:48:53.568Z,23.90
2022-11-16T15:52:43.853Z,23.60
2022-11-16T15:56:16.222Z,23.60
2022-11-16T15:59:48.768Z,38.20
2022-11-16T16:03:27.279Z,41.10
2022-11-16T16:06:56.586Z,41.20
2022-11-16T16:14:02.348Z,33.80
2022-11-16T16:17:31.533Z,24.60
2022-11-16T16:20:59.141Z,23.60
2022-11-16T16:24:45.424Z,28.20
2022-11-16T16:28:14.938Z,26.30
2022-11-16T16:31:42.363Z,31.20
2022-11-16T16:35:18.708Z,27.90
2022-11-16T16:38:49.871Z,22.70
2022-11-16T16:42:25.072Z,27.50
2022-11-16T16:45:53.531Z,18.60
2022-11-16T16:49:21.107Z,27.00
2022-11-16T16:52:48.395Z,21.50
2022-11-16T16:56:20.212Z,33.30
2022-11-16T16:59:48.654Z,20.80
2022-11-16T17:03:16.468Z,20.10
2022-11-16T17:06:46.629Z,29.60
2022-11-16T17:10:15.908Z,29.70
2022-11-16T17:13:44.569Z,27.10
2022-11-16T17:17:13.328Z,24.10
2022-11-16T17:20:45.301Z,27.40
2022-11-16T17:24:14.054Z,26.30
2022-11-16T17:27:41.663Z,29.90
2022-11-16T17:31:11.748Z,27.20
2022-11-16T17:34:41.463Z,26.40
2022-11-16T17:41:34.399Z,34.30
2022-11-16T17:45:01.412Z,30.80
2022-11-16T17:48:28.653Z,20.00
2022-11-16T17:51:56.107Z,24.10
2022-11-16T17:55:24.232Z,28.70
2022-11-16T17:58:52.921Z,23.30
2022-11-16T18:02:21.698Z,25.50
2022-11-16T18:05:50.702Z,25.40
2022-11-16T18:09:20.572Z,23.90
2022-11-16T18:12:49.075Z,19.50
2022-11-16T18:16:19.177Z,24.20
2022-11-16T18:19:47.321Z,22.40
2022-11-16T18:23:15.070Z,26.80
2022-11-16T18:26:43.839Z,23.40
2022-11-16T18:30:14.588Z,30.00
2022-11-16T18:33:43.177Z,24.90
2022-11-16T18:37:10.781Z,31.90
2022-11-16T18:40:38.613Z,32.60
2022-11-16T18:44:15.630Z,31.90
2022-11-16T18:47:44.899Z,24.50
2022-11-16T18:51:15.272Z,25.30
2022-11-16T18:54:44.610Z,28.80
2022-11-16T18:58:28.926Z,20.10
2022-11-16T19:02:02.254Z,17.70
2022-11-16T19:05:31.060Z,20.00
2022-11-16T19:09:00.638Z,28.00
2022-11-16T19:12:29.678Z,25.40
2022-11-16T19:16:01.001Z,25.30
2022-11-16T19:19:30.618Z,22.60
2022-11-16T19:23:00.532Z,21.20
2022-11-16T19:26:30.584Z,17.60
2022-11-16T19:29:59.806Z,9.00
2022-11-16T19:33:29.134Z,23.20
2022-11-16T19:36:58.412Z,22.70
2022-11-16T19:40:26.737Z,16.80
2022-11-16T19:43:58.827Z,16.40
2022-11-16T19:47:27.475Z,16.60
2022-11-16T19:50:56.170Z,12.90
2022-11-16T19:54:25.648Z,19.00
2022-11-16T19:57:54.340Z,18.60
2022-11-16T20:01:25.594Z,17.10
2022-11-16T20:04:54.508Z,18.40
2022-11-16T20:08:22.995Z,15.70
2022-11-16T20:11:51.197Z,23.20
2022-11-16T20:15:19.537Z,17.00
2022-11-16T20:18:47.903Z,31.80
2022-11-16T20:22:15.720Z,19.10
2022-11-16T20:25:44.380Z,16.10
2022-11-16T20:29:13.292Z,14.10
2022-11-16T20:32:40.696Z,15.90
2022-11-16T20:36:10.338Z,25.10
2022-11-16T20:39:37.439Z,19.10
2022-11-16T20:43:04.304Z,17.10
2022-11-16T20:46:33.075Z,15.80
2022-11-16T20:50:00.506Z,24.70
2022-11-16T21:02:38.744Z,17.40
2022-11-16T21:06:08.583Z,19.10
2022-11-16T21:13:39.908Z,23.80
2022-11-16T21:17:06.931Z,19.40
2022-11-16T21:20:33.907Z,20.90
2022-11-16T21:24:01.179Z,18.40
2022-11-16T21:27:28.233Z,15.10
2022-11-16T21:30:59.390Z,20.20
2022-11-16T21:34:27.865Z,20.90
2022-11-16T21:37:54.639Z,18.60
2022-11-16T21:41:24.359Z,20.50
2022-11-16T21:44:51.057Z,22.10
2022-11-16T21:48:18.097Z,19.10
2022-11-16T21:51:44.916Z,16.70
2022-11-16T21:55:12.181Z,17.70
2022-11-16T21:58:39.492Z,20.90
2022-11-16T22:02:06.444Z,22.80
2022-11-16T22:05:50.637Z,18.70
2022-11-16T22:09:17.322Z,19.00
2022-11-16T22:12:44.005Z,24.60
2022-11-16T22:16:15.120Z,17.70
2022-11-16T22:19:41.972Z,18.50
2022-11-16T22:23:08.608Z,17.40
2022-11-16T22:26:35.448Z,17.60
2022-11-16T22:30:02.339Z,20.70
2022-11-16T22:33:29.483Z,18.50
2022-11-16T22:36:56.622Z,18.80
2022-11-16T22:40:23.808Z,22.00
2022-11-16T22:43:50.753Z,22.40
2022-11-16T22:47:17.399Z,21.70
2022-11-16T22:50:44.408Z,21.70
2022-11-16T22:54:13.175Z,20.70
2022-11-16T22:57:39.875Z,22.70
2022-11-16T23:01:08.437Z,21.90
2022-11-16T23:04:35.251Z,23.70
2022-11-16T23:08:02.155Z,21.70
2022-11-16T23:11:47.211Z,21.90
2022-11-16T23:15:33.220Z,20.50
2022-11-16T23:19:01.231Z,21.50
2022-11-16T23:22:45.418Z,23.10
2022-11-16T23:26:34.129Z,21.60
2022-11-16T23:30:03.135Z,20.60
2022-11-16T23:33:44.788Z,23.00
2022-11-16T23:37:11.747Z,20.30
2022-11-16T23:40:40.197Z,23.30
2022-11-16T23:44:07.224Z,26.50
2022-11-16T23:47:34.325Z,22.60
2022-11-16T23:51:01.195Z,19.80
2022-11-16T23:54:28.214Z,20.90
2022-11-16T23:57:54.998Z,18.90
